sensor_id;sensor_type;location;lat;lon;timestamp;P1;durP1;ratioP1;P2;durP2;ratioP2
71814;SDS011;59659;41.520;23.794;2022-10-13T00:00:15;13.30;;;6.57;;
71814;SDS011;59659;41.520;23.794;2022-10-13T00:01:26;15.03;;;6.37;;
71814;SDS011;59659;41.520;23.794;2022-10-13T00:02:38;14.03;;;6.87;;
71814;SDS011;59659;41.520;23.794;2022-10-13T00:03:52;11.10;;;6.60;;
71814;SDS011;59659;41.520;23.794;2022-10-13T00:05:04;15.70;;;7.53;;
71814;SDS011;59659;41.520;23.794;2022-10-13T00:06:16;21.53;;;8.93;;
71814;SDS011;59659;41.520;23.794;2022-10-13T00:07:29;28.03;;;9.73;;
71814;SDS011;59659;41.520;23.794;2022-10-13T00:08:40;17.58;;;8.30;;
71814;SDS011;59659;41.520;23.794;2022-10-13T00:09:52;19.85;;;8.32;;
71814;SDS011;59659;41.520;23.794;2022-10-13T00:11:10;19.13;;;8.47;;
71814;SDS011;59659;41.520;23.794;2022-10-13T00:12:22;21.53;;;8.40;;
71814;SDS011;59659;41.520;23.794;2022-10-13T00:13:34;15.43;;;7.53;;
71814;SDS011;59659;41.520;23.794;2022-10-13T00:14:45;16.83;;;7.35;;
71814;SDS011;59659;41.520;23.794;2022-10-13T00:15:57;14.27;;;7.40;;
71814;SDS011;59659;41.520;23.794;2022-10-13T00:17:08;18.40;;;6.63;;
71814;SDS011;59659;41.520;23.794;2022-10-13T00:18:20;22.85;;;9.63;;
71814;SDS011;59659;41.520;23.794;2022-10-13T00:19:31;21.20;;;8.30;;
71814;SDS011;59659;41.520;23.794;2022-10-13T00:20:44;17.52;;;7.72;;
71814;SDS011;59659;41.520;23.794;2022-10-13T00:21:56;14.00;;;7.47;;
71814;SDS011;59659;41.520;23.794;2022-10-13T00:23:08;16.30;;;7.87;;
71814;SDS011;59659;41.520;23.794;2022-10-13T00:24:19;20.53;;;8.93;;
71814;SDS011;59659;41.520;23.794;2022-10-13T00:25:30;13.88;;;6.85;;
71814;SDS011;59659;41.520;23.794;2022-10-13T00:26:42;16.23;;;6.53;;
71814;SDS011;59659;41.520;23.794;2022-10-13T00:27:53;15.43;;;6.65;;
71814;SDS011;59659;41.520;23.794;2022-10-13T00:29:05;11.30;;;6.78;;
71814;SDS011;59659;41.520;23.794;2022-10-13T00:30:16;12.55;;;6.38;;
71814;SDS011;59659;41.520;23.794;2022-10-13T00:31:29;12.95;;;6.47;;
71814;SDS011;59659;41.520;23.794;2022-10-13T00:32:40;13.65;;;7.28;;
71814;SDS011;59659;41.520;23.794;2022-10-13T00:33:52;12.25;;;6.18;;
71814;SDS011;59659;41.520;23.794;2022-10-13T00:35:04;9.50;;;5.03;;
71814;SDS011;59659;41.520;23.794;2022-10-13T00:36:16;16.73;;;6.83;;
71814;SDS011;59659;41.520;23.794;2022-10-13T00:37:27;11.52;;;6.35;;
71814;SDS011;59659;41.520;23.794;2022-10-13T00:38:39;14.30;;;7.00;;
71814;SDS011;59659;41.520;23.794;2022-10-13T00:39:50;10.10;;;5.43;;
71814;SDS011;59659;41.520;23.794;2022-10-13T00:41:02;14.30;;;6.75;;
71814;SDS011;59659;41.520;23.794;2022-10-13T00:42:13;11.88;;;6.68;;
71814;SDS011;59659;41.520;23.794;2022-10-13T00:43:26;10.38;;;5.72;;
71814;SDS011;59659;41.520;23.794;2022-10-13T00:46:08;10.77;;;6.28;;
71814;SDS011;59659;41.520;23.794;2022-10-13T00:47:19;14.82;;;6.85;;
71814;SDS011;59659;41.520;23.794;2022-10-13T00:48:31;11.20;;;5.97;;
71814;SDS011;59659;41.520;23.794;2022-10-13T00:49:43;10.73;;;5.38;;
71814;SDS011;59659;41.520;23.794;2022-10-13T00:50:54;11.82;;;6.80;;
71814;SDS011;59659;41.520;23.794;2022-10-13T00:52:06;14.20;;;6.55;;
71814;SDS011;59659;41.520;23.794;2022-10-13T00:53:20;14.88;;;7.53;;
71814;SDS011;59659;41.520;23.794;2022-10-13T00:54:33;14.65;;;6.82;;
71814;SDS011;59659;41.520;23.794;2022-10-13T00:55:44;10.98;;;6.10;;
71814;SDS011;59659;41.520;23.794;2022-10-13T00:56:56;13.68;;;6.75;;
71814;SDS011;59659;41.520;23.794;2022-10-13T00:58:08;12.20;;;6.50;;
71814;SDS011;59659;41.520;23.794;2022-10-13T00:59:22;12.63;;;6.38;;
71814;SDS011;59659;41.520;23.794;2022-10-13T01:00:36;13.55;;;6.97;;
71814;SDS011;59659;41.520;23.794;2022-10-13T01:01:48;12.80;;;6.57;;
71814;SDS011;59659;41.520;23.794;2022-10-13T01:03:00;13.73;;;7.03;;
71814;SDS011;59659;41.520;23.794;2022-10-13T01:04:12;15.32;;;7.60;;
71814;SDS011;59659;41.520;23.794;2022-10-13T01:05:24;14.77;;;7.47;;
71814;SDS011;59659;41.520;23.794;2022-10-13T01:06:35;12.23;;;6.70;;
71814;SDS011;59659;41.520;23.794;2022-10-13T01:07:47;12.82;;;7.05;;
71814;SDS011;59659;41.520;23.794;2022-10-13T01:08:59;15.60;;;7.45;;
71814;SDS011;59659;41.520;23.794;2022-10-13T01:10:11;12.40;;;6.05;;
71814;SDS011;59659;41.520;23.794;2022-10-13T01:11:27;14.00;;;6.28;;
71814;SDS011;59659;41.520;23.794;2022-10-13T01:20:31;21.38;;;6.45;;
71814;SDS011;59659;41.520;23.794;2022-10-13T01:27:14;11.10;;;6.38;;
71814;SDS011;59659;41.520;23.794;2022-10-13T01:35:58;13.75;;;5.95;;
71814;SDS011;59659;41.520;23.794;2022-10-13T01:38:32;12.55;;;7.35;;
71814;SDS011;59659;41.520;23.794;2022-10-13T01:39:50;14.63;;;6.60;;
71814;SDS011;59659;41.520;23.794;2022-10-13T01:41:19;14.35;;;6.90;;
71814;SDS011;59659;41.520;23.794;2022-10-13T01:44:08;12.95;;;6.68;;
71814;SDS011;59659;41.520;23.794;2022-10-13T01:45:18;15.57;;;7.40;;
71814;SDS011;59659;41.520;23.794;2022-10-13T01:46:32;12.73;;;6.32;;
71814;SDS011;59659;41.520;23.794;2022-10-13T01:47:45;13.63;;;7.40;;
71814;SDS011;59659;41.520;23.794;2022-10-13T01:48:57;12.15;;;7.03;;
71814;SDS011;59659;41.520;23.794;2022-10-13T01:50:09;13.65;;;6.90;;
71814;SDS011;59659;41.520;23.794;2022-10-13T01:51:21;12.38;;;6.72;;
71814;SDS011;59659;41.520;23.794;2022-10-13T01:52:34;13.00;;;6.53;;
71814;SDS011;59659;41.520;23.794;2022-10-13T01:53:47;11.48;;;5.90;;
71814;SDS011;59659;41.520;23.794;2022-10-13T01:55:03;10.90;;;5.50;;
71814;SDS011;59659;41.520;23.794;2022-10-13T01:56:14;11.70;;;6.00;;
71814;SDS011;59659;41.520;23.794;2022-10-13T01:57:30;10.95;;;6.55;;
71814;SDS011;59659;41.520;23.794;2022-10-13T01:58:42;8.93;;;5.28;;
71814;SDS011;59659;41.520;23.794;2022-10-13T01:59:55;12.52;;;7.07;;
71814;SDS011;59659;41.520;23.794;2022-10-13T02:02:20;15.27;;;7.75;;
71814;SDS011;59659;41.520;23.794;2022-10-13T02:05:02;10.50;;;5.57;;
71814;SDS011;59659;41.520;23.794;2022-10-13T02:06:18;13.95;;;6.93;;
71814;SDS011;59659;41.520;23.794;2022-10-13T02:07:41;13.25;;;6.70;;
71814;SDS011;59659;41.520;23.794;2022-10-13T02:08:57;14.38;;;6.45;;
71814;SDS011;59659;41.520;23.794;2022-10-13T02:11:29;12.80;;;6.97;;
71814;SDS011;59659;41.520;23.794;2022-10-13T02:12:42;14.77;;;7.57;;
71814;SDS011;59659;41.520;23.794;2022-10-13T02:15:40;12.75;;;6.30;;
71814;SDS011;59659;41.520;23.794;2022-10-13T02:16:52;14.68;;;7.88;;
71814;SDS011;59659;41.520;23.794;2022-10-13T02:18:06;12.13;;;6.57;;
71814;SDS011;59659;41.520;23.794;2022-10-13T02:19:18;11.88;;;6.60;;
71814;SDS011;59659;41.520;23.794;2022-10-13T02:20:30;13.40;;;6.97;;
71814;SDS011;59659;41.520;23.794;2022-10-13T02:21:42;15.40;;;7.22;;
71814;SDS011;59659;41.520;23.794;2022-10-13T02:22:54;14.55;;;6.50;;
71814;SDS011;59659;41.520;23.794;2022-10-13T02:24:07;13.20;;;7.28;;
71814;SDS011;59659;41.520;23.794;2022-10-13T02:25:19;11.68;;;6.72;;
71814;SDS011;59659;41.520;23.794;2022-10-13T02:26:31;15.48;;;8.00;;
71814;SDS011;59659;41.520;23.794;2022-10-13T02:27:43;12.85;;;6.43;;
71814;SDS011;59659;41.520;23.794;2022-10-13T02:28:55;13.73;;;6.90;;
71814;SDS011;59659;41.520;23.794;2022-10-13T02:30:06;13.00;;;7.25;;
71814;SDS011;59659;41.520;23.794;2022-10-13T02:31:18;18.70;;;7.10;;
71814;SDS011;59659;41.520;23.794;2022-10-13T02:32:29;11.60;;;5.60;;
71814;SDS011;59659;41.520;23.794;2022-10-13T02:33:41;13.15;;;7.22;;
71814;SDS011;59659;41.520;23.794;2022-10-13T02:34:52;16.00;;;7.32;;
71814;SDS011;59659;41.520;23.794;2022-10-13T02:36:04;14.52;;;8.02;;
71814;SDS011;59659;41.520;23.794;2022-10-13T02:37:16;14.80;;;6.93;;
71814;SDS011;59659;41.520;23.794;2022-10-13T02:38:27;15.20;;;6.45;;
71814;SDS011;59659;41.520;23.794;2022-10-13T02:39:39;13.07;;;7.28;;
71814;SDS011;59659;41.520;23.794;2022-10-13T02:40:50;14.82;;;6.80;;
71814;SDS011;59659;41.520;23.794;2022-10-13T02:42:02;13.48;;;6.57;;
71814;SDS011;59659;41.520;23.794;2022-10-13T02:43:13;13.30;;;6.60;;
71814;SDS011;59659;41.520;23.794;2022-10-13T02:44:25;11.77;;;7.00;;
71814;SDS011;59659;41.520;23.794;2022-10-13T02:45:36;13.55;;;5.90;;
71814;SDS011;59659;41.520;23.794;2022-10-13T02:46:48;11.85;;;5.72;;
71814;SDS011;59659;41.520;23.794;2022-10-13T02:47:59;12.65;;;6.85;;
71814;SDS011;59659;41.520;23.794;2022-10-13T02:49:11;15.13;;;6.28;;
71814;SDS011;59659;41.520;23.794;2022-10-13T02:50:22;10.40;;;6.25;;
71814;SDS011;59659;41.520;23.794;2022-10-13T02:51:34;13.45;;;5.47;;
71814;SDS011;59659;41.520;23.794;2022-10-13T02:52:50;16.23;;;7.28;;
71814;SDS011;59659;41.520;23.794;2022-10-13T02:54:02;12.70;;;6.22;;
71814;SDS011;59659;41.520;23.794;2022-10-13T02:55:13;13.90;;;6.28;;
71814;SDS011;59659;41.520;23.794;2022-10-13T02:56:25;12.88;;;7.63;;
71814;SDS011;59659;41.520;23.794;2022-10-13T02:57:36;12.65;;;6.82;;
71814;SDS011;59659;41.520;23.794;2022-10-13T02:58:48;16.05;;;6.53;;
71814;SDS011;59659;41.520;23.794;2022-10-13T02:59:59;14.10;;;6.57;;
71814;SDS011;59659;41.520;23.794;2022-10-13T03:01:12;11.88;;;6.22;;
71814;SDS011;59659;41.520;23.794;2022-10-13T03:02:25;16.13;;;7.45;;
71814;SDS011;59659;41.520;23.794;2022-10-13T03:03:36;15.27;;;7.18;;
71814;SDS011;59659;41.520;23.794;2022-10-13T03:04:48;15.60;;;7.00;;
71814;SDS011;59659;41.520;23.794;2022-10-13T03:05:59;12.45;;;6.95;;
71814;SDS011;59659;41.520;23.794;2022-10-13T03:07:11;13.85;;;6.85;;
71814;SDS011;59659;41.520;23.794;2022-10-13T03:08:23;11.35;;;6.40;;
71814;SDS011;59659;41.520;23.794;2022-10-13T03:09:35;13.15;;;6.68;;
71814;SDS011;59659;41.520;23.794;2022-10-13T03:10:46;12.25;;;6.78;;
71814;SDS011;59659;41.520;23.794;2022-10-13T03:11:58;12.55;;;6.28;;
71814;SDS011;59659;41.520;23.794;2022-10-13T03:13:09;12.85;;;5.88;;
71814;SDS011;59659;41.520;23.794;2022-10-13T03:14:20;10.60;;;5.93;;
71814;SDS011;59659;41.520;23.794;2022-10-13T03:15:32;11.50;;;6.28;;
71814;SDS011;59659;41.520;23.794;2022-10-13T03:16:43;10.55;;;6.05;;
71814;SDS011;59659;41.520;23.794;2022-10-13T03:17:55;15.70;;;7.68;;
71814;SDS011;59659;41.520;23.794;2022-10-13T03:19:09;9.60;;;6.30;;
71814;SDS011;59659;41.520;23.794;2022-10-13T03:20:21;15.70;;;7.40;;
71814;SDS011;59659;41.520;23.794;2022-10-13T03:21:32;18.10;;;8.63;;
71814;SDS011;59659;41.520;23.794;2022-10-13T03:22:44;21.17;;;9.90;;
71814;SDS011;59659;41.520;23.794;2022-10-13T03:24:00;21.40;;;10.70;;
71814;SDS011;59659;41.520;23.794;2022-10-13T03:25:11;23.20;;;11.05;;
71814;SDS011;59659;41.520;23.794;2022-10-13T03:26:23;27.30;;;12.38;;
71814;SDS011;59659;41.520;23.794;2022-10-13T03:27:34;17.75;;;8.27;;
71814;SDS011;59659;41.520;23.794;2022-10-13T03:28:49;17.80;;;6.97;;
71814;SDS011;59659;41.520;23.794;2022-10-13T03:30:01;14.25;;;7.03;;
71814;SDS011;59659;41.520;23.794;2022-10-13T03:31:13;12.77;;;7.10;;
71814;SDS011;59659;41.520;23.794;2022-10-13T03:32:25;12.30;;;6.78;;
71814;SDS011;59659;41.520;23.794;2022-10-13T03:33:36;11.68;;;6.30;;
71814;SDS011;59659;41.520;23.794;2022-10-13T03:34:48;14.88;;;6.45;;
71814;SDS011;59659;41.520;23.794;2022-10-13T03:36:00;12.93;;;6.47;;
71814;SDS011;59659;41.520;23.794;2022-10-13T03:37:12;11.10;;;6.03;;
71814;SDS011;59659;41.520;23.794;2022-10-13T03:38:24;13.57;;;5.97;;
71814;SDS011;59659;41.520;23.794;2022-10-13T03:39:36;12.85;;;7.05;;
71814;SDS011;59659;41.520;23.794;2022-10-13T03:40:48;13.60;;;6.25;;
71814;SDS011;59659;41.520;23.794;2022-10-13T03:41:59;16.60;;;6.40;;
71814;SDS011;59659;41.520;23.794;2022-10-13T03:43:11;13.05;;;6.50;;
71814;SDS011;59659;41.520;23.794;2022-10-13T03:44:22;13.48;;;6.30;;
71814;SDS011;59659;41.520;23.794;2022-10-13T03:45:34;11.35;;;5.85;;
71814;SDS011;59659;41.520;23.794;2022-10-13T03:46:45;14.77;;;6.53;;
71814;SDS011;59659;41.520;23.794;2022-10-13T03:47:58;10.85;;;5.55;;
71814;SDS011;59659;41.520;23.794;2022-10-13T03:49:10;13.13;;;6.03;;
71814;SDS011;59659;41.520;23.794;2022-10-13T03:50:22;14.30;;;6.68;;
71814;SDS011;59659;41.520;23.794;2022-10-13T03:51:33;17.02;;;7.03;;
71814;SDS011;59659;41.520;23.794;2022-10-13T03:52:45;13.75;;;6.25;;
71814;SDS011;59659;41.520;23.794;2022-10-13T03:53:57;13.57;;;6.75;;
71814;SDS011;59659;41.520;23.794;2022-10-13T03:55:08;10.38;;;5.38;;
71814;SDS011;59659;41.520;23.794;2022-10-13T03:56:22;15.27;;;8.05;;
71814;SDS011;59659;41.520;23.794;2022-10-13T03:57:34;13.40;;;7.25;;
71814;SDS011;59659;41.520;23.794;2022-10-13T03:58:45;11.13;;;6.35;;
71814;SDS011;59659;41.520;23.794;2022-10-13T03:59:57;13.85;;;6.07;;
71814;SDS011;59659;41.520;23.794;2022-10-13T04:01:09;14.20;;;6.65;;
71814;SDS011;59659;41.520;23.794;2022-10-13T04:02:21;11.43;;;6.20;;
71814;SDS011;59659;41.520;23.794;2022-10-13T04:03:33;9.93;;;5.88;;
71814;SDS011;59659;41.520;23.794;2022-10-13T04:04:44;12.73;;;5.63;;
71814;SDS011;59659;41.520;23.794;2022-10-13T04:05:59;11.25;;;6.18;;
71814;SDS011;59659;41.520;23.794;2022-10-13T04:07:10;11.82;;;5.85;;
71814;SDS011;59659;41.520;23.794;2022-10-13T04:08:22;14.25;;;7.22;;
71814;SDS011;59659;41.520;23.794;2022-10-13T04:09:33;10.82;;;5.78;;
71814;SDS011;59659;41.520;23.794;2022-10-13T04:10:45;13.57;;;6.68;;
71814;SDS011;59659;41.520;23.794;2022-10-13T04:11:56;11.30;;;6.28;;
71814;SDS011;59659;41.520;23.794;2022-10-13T04:13:09;15.50;;;7.10;;
71814;SDS011;59659;41.520;23.794;2022-10-13T04:14:20;12.35;;;6.53;;
71814;SDS011;59659;41.520;23.794;2022-10-13T04:15:38;12.70;;;6.70;;
71814;SDS011;59659;41.520;23.794;2022-10-13T04:16:50;12.98;;;6.55;;
71814;SDS011;59659;41.520;23.794;2022-10-13T04:18:01;14.45;;;6.47;;
71814;SDS011;59659;41.520;23.794;2022-10-13T04:19:13;13.93;;;6.22;;
71814;SDS011;59659;41.520;23.794;2022-10-13T04:20:25;23.45;;;9.13;;
71814;SDS011;59659;41.520;23.794;2022-10-13T04:21:36;22.58;;;10.25;;
71814;SDS011;59659;41.520;23.794;2022-10-13T04:22:48;17.92;;;10.35;;
71814;SDS011;59659;41.520;23.794;2022-10-13T04:24:00;22.23;;;10.35;;
71814;SDS011;59659;41.520;23.794;2022-10-13T04:25:11;18.80;;;10.73;;
71814;SDS011;59659;41.520;23.794;2022-10-13T04:26:24;23.38;;;11.85;;
71814;SDS011;59659;41.520;23.794;2022-10-13T04:27:36;16.42;;;9.27;;
71814;SDS011;59659;41.520;23.794;2022-10-13T04:28:49;17.88;;;8.75;;
71814;SDS011;59659;41.520;23.794;2022-10-13T04:30:05;20.17;;;10.95;;
71814;SDS011;59659;41.520;23.794;2022-10-13T04:31:17;28.23;;;12.55;;
71814;SDS011;59659;41.520;23.794;2022-10-13T04:32:28;24.17;;;10.48;;
71814;SDS011;59659;41.520;23.794;2022-10-13T04:33:42;22.30;;;10.10;;
71814;SDS011;59659;41.520;23.794;2022-10-13T04:34:54;16.45;;;9.65;;
71814;SDS011;59659;41.520;23.794;2022-10-13T04:36:06;16.92;;;8.55;;
71814;SDS011;59659;41.520;23.794;2022-10-13T04:37:18;25.83;;;9.77;;
71814;SDS011;59659;41.520;23.794;2022-10-13T04:38:29;12.55;;;6.90;;
71814;SDS011;59659;41.520;23.794;2022-10-13T04:39:41;12.57;;;7.38;;
71814;SDS011;59659;41.520;23.794;2022-10-13T04:40:52;16.98;;;8.43;;
71814;SDS011;59659;41.520;23.794;2022-10-13T04:42:04;12.85;;;6.65;;
71814;SDS011;59659;41.520;23.794;2022-10-13T04:43:15;16.15;;;8.07;;
71814;SDS011;59659;41.520;23.794;2022-10-13T04:44:27;10.95;;;6.18;;
71814;SDS011;59659;41.520;23.794;2022-10-13T04:45:38;12.75;;;7.25;;
71814;SDS011;59659;41.520;23.794;2022-10-13T04:46:50;16.90;;;7.72;;
71814;SDS011;59659;41.520;23.794;2022-10-13T04:48:01;14.60;;;6.88;;
71814;SDS011;59659;41.520;23.794;2022-10-13T04:49:13;21.73;;;5.75;;
71814;SDS011;59659;41.520;23.794;2022-10-13T04:50:25;18.17;;;6.90;;
71814;SDS011;59659;41.520;23.794;2022-10-13T04:51:37;17.80;;;6.25;;
71814;SDS011;59659;41.520;23.794;2022-10-13T04:52:48;13.88;;;6.63;;
71814;SDS011;59659;41.520;23.794;2022-10-13T04:54:00;11.82;;;6.53;;
71814;SDS011;59659;41.520;23.794;2022-10-13T04:55:12;29.50;;;7.35;;
71814;SDS011;59659;41.520;23.794;2022-10-13T04:56:23;29.65;;;9.30;;
71814;SDS011;59659;41.520;23.794;2022-10-13T04:57:35;36.28;;;8.90;;
71814;SDS011;59659;41.520;23.794;2022-10-13T04:58:46;27.73;;;9.18;;
71814;SDS011;59659;41.520;23.794;2022-10-13T04:59:58;21.52;;;9.30;;
71814;SDS011;59659;41.520;23.794;2022-10-13T05:01:13;30.20;;;9.63;;
71814;SDS011;59659;41.520;23.794;2022-10-13T05:02:33;31.88;;;8.52;;
71814;SDS011;59659;41.520;23.794;2022-10-13T05:03:45;40.58;;;8.65;;
71814;SDS011;59659;41.520;23.794;2022-10-13T05:04:57;21.73;;;7.05;;
71814;SDS011;59659;41.520;23.794;2022-10-13T05:06:15;37.78;;;7.55;;
71814;SDS011;59659;41.520;23.794;2022-10-13T05:07:27;27.30;;;7.35;;
71814;SDS011;59659;41.520;23.794;2022-10-13T05:08:38;16.08;;;7.13;;
71814;SDS011;59659;41.520;23.794;2022-10-13T05:09:50;47.65;;;10.50;;
71814;SDS011;59659;41.520;23.794;2022-10-13T05:11:02;40.13;;;8.48;;
71814;SDS011;59659;41.520;23.794;2022-10-13T05:12:13;33.90;;;8.75;;
71814;SDS011;59659;41.520;23.794;2022-10-13T05:13:25;32.15;;;9.68;;
71814;SDS011;59659;41.520;23.794;2022-10-13T05:14:37;26.45;;;8.07;;
71814;SDS011;59659;41.520;23.794;2022-10-13T05:15:49;32.80;;;7.40;;
71814;SDS011;59659;41.520;23.794;2022-10-13T05:17:00;19.10;;;6.40;;
71814;SDS011;59659;41.520;23.794;2022-10-13T05:18:12;16.83;;;8.38;;
71814;SDS011;59659;41.520;23.794;2022-10-13T05:19:23;17.63;;;9.43;;
71814;SDS011;59659;41.520;23.794;2022-10-13T05:20:35;16.52;;;8.85;;
71814;SDS011;59659;41.520;23.794;2022-10-13T05:21:46;29.13;;;10.35;;
71814;SDS011;59659;41.520;23.794;2022-10-13T05:22:58;24.77;;;10.73;;
71814;SDS011;59659;41.520;23.794;2022-10-13T05:24:09;30.17;;;13.95;;
71814;SDS011;59659;41.520;23.794;2022-10-13T05:25:23;30.00;;;11.93;;
71814;SDS011;59659;41.520;23.794;2022-10-13T05:26:35;28.33;;;12.48;;
71814;SDS011;59659;41.520;23.794;2022-10-13T05:27:46;24.00;;;10.85;;
71814;SDS011;59659;41.520;23.794;2022-10-13T05:28:58;26.38;;;10.45;;
71814;SDS011;59659;41.520;23.794;2022-10-13T05:30:12;18.33;;;9.10;;
71814;SDS011;59659;41.520;23.794;2022-10-13T05:31:24;18.95;;;9.50;;
71814;SDS011;59659;41.520;23.794;2022-10-13T05:32:36;14.73;;;8.10;;
71814;SDS011;59659;41.520;23.794;2022-10-13T05:33:48;14.38;;;7.07;;
71814;SDS011;59659;41.520;23.794;2022-10-13T05:35:02;15.13;;;7.72;;
71814;SDS011;59659;41.520;23.794;2022-10-13T05:36:16;14.70;;;6.93;;
71814;SDS011;59659;41.520;23.794;2022-10-13T05:37:28;15.02;;;6.57;;
71814;SDS011;59659;41.520;23.794;2022-10-13T05:38:39;10.30;;;6.05;;
71814;SDS011;59659;41.520;23.794;2022-10-13T05:39:51;14.68;;;6.63;;
71814;SDS011;59659;41.520;23.794;2022-10-13T05:41:11;11.70;;;6.63;;
71814;SDS011;59659;41.520;23.794;2022-10-13T05:42:23;12.55;;;6.88;;
71814;SDS011;59659;41.520;23.794;2022-10-13T05:43:34;11.90;;;5.68;;
71814;SDS011;59659;41.520;23.794;2022-10-13T05:44:46;12.98;;;7.05;;
71814;SDS011;59659;41.520;23.794;2022-10-13T05:45:58;13.93;;;6.50;;
71814;SDS011;59659;41.520;23.794;2022-10-13T05:47:10;11.80;;;5.88;;
71814;SDS011;59659;41.520;23.794;2022-10-13T05:48:22;10.70;;;6.85;;
71814;SDS011;59659;41.520;23.794;2022-10-13T05:49:33;16.48;;;8.57;;
71814;SDS011;59659;41.520;23.794;2022-10-13T05:50:46;12.90;;;8.43;;
71814;SDS011;59659;41.520;23.794;2022-10-13T05:51:59;13.00;;;7.10;;
71814;SDS011;59659;41.520;23.794;2022-10-13T05:53:11;13.60;;;7.38;;
71814;SDS011;59659;41.520;23.794;2022-10-13T05:55:35;14.05;;;7.05;;
71814;SDS011;59659;41.520;23.794;2022-10-13T05:56:47;14.38;;;7.57;;
71814;SDS011;59659;41.520;23.794;2022-10-13T05:58:03;16.48;;;8.05;;
71814;SDS011;59659;41.520;23.794;2022-10-13T05:59:16;16.35;;;8.32;;
71814;SDS011;59659;41.520;23.794;2022-10-13T06:00:33;17.02;;;8.98;;
71814;SDS011;59659;41.520;23.794;2022-10-13T06:01:45;18.02;;;8.93;;
71814;SDS011;59659;41.520;23.794;2022-10-13T06:02:58;17.02;;;8.52;;
71814;SDS011;59659;41.520;23.794;2022-10-13T06:04:33;17.08;;;7.72;;
71814;SDS011;59659;41.520;23.794;2022-10-13T06:05:46;14.27;;;8.45;;
71814;SDS011;59659;41.520;23.794;2022-10-13T06:06:57;20.98;;;9.68;;
71814;SDS011;59659;41.520;23.794;2022-10-13T06:08:09;19.80;;;8.55;;
71814;SDS011;59659;41.520;23.794;2022-10-13T06:09:20;17.73;;;9.00;;
71814;SDS011;59659;41.520;23.794;2022-10-13T06:10:32;25.92;;;11.73;;
71814;SDS011;59659;41.520;23.794;2022-10-13T06:11:43;22.15;;;9.48;;
71814;SDS011;59659;41.520;23.794;2022-10-13T06:12:55;19.77;;;9.35;;
71814;SDS011;59659;41.520;23.794;2022-10-13T06:14:06;19.02;;;8.88;;
71814;SDS011;59659;41.520;23.794;2022-10-13T06:15:18;21.55;;;9.63;;
71814;SDS011;59659;41.520;23.794;2022-10-13T06:16:34;20.23;;;8.82;;
71814;SDS011;59659;41.520;23.794;2022-10-13T06:17:49;16.45;;;8.90;;
71814;SDS011;59659;41.520;23.794;2022-10-13T06:19:00;19.23;;;9.00;;
71814;SDS011;59659;41.520;23.794;2022-10-13T06:20:13;17.25;;;9.50;;
71814;SDS011;59659;41.520;23.794;2022-10-13T06:21:25;15.88;;;9.38;;
71814;SDS011;59659;41.520;23.794;2022-10-13T06:22:36;17.73;;;9.02;;
71814;SDS011;59659;41.520;23.794;2022-10-13T06:23:50;17.67;;;9.40;;
71814;SDS011;59659;41.520;23.794;2022-10-13T06:25:03;22.67;;;10.00;;
71814;SDS011;59659;41.520;23.794;2022-10-13T06:26:16;19.92;;;8.40;;
71814;SDS011;59659;41.520;23.794;2022-10-13T06:27:27;18.33;;;8.65;;
71814;SDS011;59659;41.520;23.794;2022-10-13T06:28:39;20.73;;;10.38;;
71814;SDS011;59659;41.520;23.794;2022-10-13T06:29:51;14.20;;;7.85;;
71814;SDS011;59659;41.520;23.794;2022-10-13T06:31:03;11.88;;;7.97;;
71814;SDS011;59659;41.520;23.794;2022-10-13T06:32:18;27.02;;;10.48;;
71814;SDS011;59659;41.520;23.794;2022-10-13T06:33:33;18.63;;;8.15;;
71814;SDS011;59659;41.520;23.794;2022-10-13T06:34:45;17.08;;;9.40;;
71814;SDS011;59659;41.520;23.794;2022-10-13T06:35:59;17.85;;;9.30;;
71814;SDS011;59659;41.520;23.794;2022-10-13T06:37:11;18.67;;;9.80;;
71814;SDS011;59659;41.520;23.794;2022-10-13T06:38:23;18.00;;;9.20;;
71814;SDS011;59659;41.520;23.794;2022-10-13T06:39:34;16.00;;;9.43;;
71814;SDS011;59659;41.520;23.794;2022-10-13T06:40:46;14.40;;;8.00;;
71814;SDS011;59659;41.520;23.794;2022-10-13T06:41:57;16.52;;;8.23;;
71814;SDS011;59659;41.520;23.794;2022-10-13T06:43:09;18.08;;;8.30;;
71814;SDS011;59659;41.520;23.794;2022-10-13T06:44:20;14.30;;;8.60;;
71814;SDS011;59659;41.520;23.794;2022-10-13T06:45:32;18.27;;;9.38;;
71814;SDS011;59659;41.520;23.794;2022-10-13T06:46:43;17.67;;;8.50;;
71814;SDS011;59659;41.520;23.794;2022-10-13T06:47:55;16.70;;;8.73;;
71814;SDS011;59659;41.520;23.794;2022-10-13T06:49:06;19.52;;;9.02;;
71814;SDS011;59659;41.520;23.794;2022-10-13T06:50:21;17.25;;;8.85;;
71814;SDS011;59659;41.520;23.794;2022-10-13T06:51:32;17.63;;;8.82;;
71814;SDS011;59659;41.520;23.794;2022-10-13T06:52:44;14.02;;;7.60;;
71814;SDS011;59659;41.520;23.794;2022-10-13T06:53:55;18.02;;;7.97;;
71814;SDS011;59659;41.520;23.794;2022-10-13T06:55:09;18.27;;;9.65;;
71814;SDS011;59659;41.520;23.794;2022-10-13T06:56:21;13.53;;;7.57;;
71814;SDS011;59659;41.520;23.794;2022-10-13T06:57:33;16.07;;;9.47;;
71814;SDS011;59659;41.520;23.794;2022-10-13T06:58:47;20.47;;;7.93;;
71814;SDS011;59659;41.520;23.794;2022-10-13T06:59:58;18.83;;;8.83;;
71814;SDS011;59659;41.520;23.794;2022-10-13T07:01:11;14.83;;;8.47;;
71814;SDS011;59659;41.520;23.794;2022-10-13T07:02:22;14.45;;;7.60;;
71814;SDS011;59659;41.520;23.794;2022-10-13T07:03:34;15.10;;;6.93;;
71814;SDS011;59659;41.520;23.794;2022-10-13T07:04:46;15.13;;;8.07;;
71814;SDS011;59659;41.520;23.794;2022-10-13T07:06:01;17.50;;;7.07;;
71814;SDS011;59659;41.520;23.794;2022-10-13T07:07:16;14.87;;;7.13;;
71814;SDS011;59659;41.520;23.794;2022-10-13T07:08:27;15.50;;;6.97;;
71814;SDS011;59659;41.520;23.794;2022-10-13T07:09:41;13.37;;;7.60;;
71814;SDS011;59659;41.520;23.794;2022-10-13T07:10:53;17.27;;;7.80;;
71814;SDS011;59659;41.520;23.794;2022-10-13T07:12:04;12.73;;;7.23;;
71814;SDS011;59659;41.520;23.794;2022-10-13T07:13:17;12.27;;;6.75;;
71814;SDS011;59659;41.520;23.794;2022-10-13T07:14:29;15.13;;;7.33;;
71814;SDS011;59659;41.520;23.794;2022-10-13T07:15:40;15.30;;;7.00;;
71814;SDS011;59659;41.520;23.794;2022-10-13T07:16:52;14.90;;;7.00;;
71814;SDS011;59659;41.520;23.794;2022-10-13T07:18:04;12.73;;;7.70;;
71814;SDS011;59659;41.520;23.794;2022-10-13T07:19:15;21.27;;;6.93;;
71814;SDS011;59659;41.520;23.794;2022-10-13T07:20:27;15.43;;;6.47;;
71814;SDS011;59659;41.520;23.794;2022-10-13T07:21:38;15.53;;;8.10;;
71814;SDS011;59659;41.520;23.794;2022-10-13T07:22:53;13.03;;;5.77;;
71814;SDS011;59659;41.520;23.794;2022-10-13T07:24:04;17.90;;;7.20;;
71814;SDS011;59659;41.520;23.794;2022-10-13T07:25:17;12.40;;;5.77;;
71814;SDS011;59659;41.520;23.794;2022-10-13T07:26:28;12.43;;;6.57;;
71814;SDS011;59659;41.520;23.794;2022-10-13T07:27:40;15.07;;;6.53;;
71814;SDS011;59659;41.520;23.794;2022-10-13T07:28:52;14.77;;;6.97;;
71814;SDS011;59659;41.520;23.794;2022-10-13T07:30:04;10.03;;;5.83;;
71814;SDS011;59659;41.520;23.794;2022-10-13T07:31:17;15.07;;;7.73;;
71814;SDS011;59659;41.520;23.794;2022-10-13T07:32:30;13.07;;;7.33;;
71814;SDS011;59659;41.520;23.794;2022-10-13T07:33:42;14.00;;;7.77;;
71814;SDS011;59659;41.520;23.794;2022-10-13T07:34:54;11.20;;;6.30;;